Terminal Aerodrome Forecast
Issued by NWS Atlanta, GA

Home | Current Version | Previous Version | Text Only | Print | Product List | Glossary On
Versions: 1 2 3 4 5 6 7 8 9 10 11 12 13 14 15 16 17 18 19 20 21 22 23 24 25 26 27 28 29 30 31 32 33 34 35 36 37 38
000
FTAK31 PAJN 150900 AAB
TAFAHN
TAF AMD
PAHN 150919Z 1509/1606 00000KT 1SM BR OVC003
      TEMPO 1509/1513 1/2SM FG
     FM151300 00000KT 1/2SM FG OVC003
     FM151600 VRB03KT 3SM BR SCT003 BKN015
     FM151900 14006KT P6SM SCT015 BKN070 PROB30 1600/1606 -RA SCT020
      BKN030 OVC070
      AMD LTD TO CLD VIS AND WIND=

USA.gov is the U.S. government's official web portal to all federal, state and local government web resources and services.